createdAt,value
2022-08-09T00:00:04.161Z,882.5
2022-08-09T00:01:00.451Z,882.5
2022-08-09T00:02:00.450Z,882.5
2022-08-09T00:03:00.423Z,882.5
2022-08-09T00:04:10.287Z,882.5
2022-08-09T00:05:03.683Z,882.5
2022-08-09T00:06:19.117Z,882.6
2022-08-09T00:07:00.358Z,882.6
2022-08-09T00:08:01.469Z,882.6
2022-08-09T00:09:00.436Z,882.6
2022-08-09T00:10:00.414Z,882.6
2022-08-09T00:11:00.350Z,882.6
2022-08-09T00:12:04.475Z,882.6
2022-08-09T00:13:00.339Z,882.5
2022-08-09T00:14:00.313Z,882.5
2022-08-09T00:15:06.621Z,882.5
2022-08-09T00:16:02.414Z,882.6
2022-08-09T00:17:00.441Z,882.5
2022-08-09T00:18:04.337Z,882.6
2022-08-09T00:19:00.437Z,882.6
2022-08-09T00:20:00.318Z,882.5
2022-08-09T00:21:00.411Z,882.5
2022-08-09T00:22:00.425Z,882.6
2022-08-09T00:23:08.371Z,882.5
2022-08-09T00:24:00.336Z,882.5
2022-08-09T00:25:00.432Z,882.6
2022-08-09T00:26:00.330Z,882.6
2022-08-09T00:27:00.322Z,882.5
2022-08-09T00:28:00.327Z,882.5
2022-08-09T00:29:00.300Z,882.5
2022-08-09T00:30:16.430Z,882.5
2022-08-09T00:31:00.305Z,882.5
2022-08-09T00:32:01.166Z,882.5
2022-08-09T00:33:00.383Z,882.6
2022-08-09T00:34:00.300Z,882.6
2022-08-09T00:35:00.406Z,882.6
2022-08-09T00:36:00.310Z,882.6
2022-08-09T00:37:00.311Z,882.6
2022-08-09T00:38:00.314Z,882.6
2022-08-09T00:39:00.335Z,882.5
2022-08-09T00:40:12.838Z,882.5
2022-08-09T00:41:00.480Z,882.5
2022-08-09T00:44:09.845Z,882.5
2022-08-09T00:44:16.564Z,882.6
2022-08-09T00:44:19.482Z,882.6
2022-08-09T00:45:03.547Z,882.6
2022-08-09T00:46:00.354Z,882.6
2022-08-09T00:47:04.892Z,882.6
2022-08-09T00:48:00.399Z,882.6
2022-08-09T00:49:00.319Z,882.6
2022-08-09T00:50:00.301Z,882.6
2022-08-09T00:51:00.302Z,882.6
2022-08-09T00:52:02.057Z,882.6
2022-08-09T00:53:00.313Z,882.7
2022-08-09T00:54:00.417Z,882.6
2022-08-09T00:55:00.962Z,882.7
2022-08-09T00:56:04.512Z,882.6
2022-08-09T00:57:00.295Z,882.6
2022-08-09T00:58:00.395Z,882.6
2022-08-09T00:59:00.325Z,882.7
2022-08-09T01:00:02.833Z,882.7
2022-08-09T01:01:00.486Z,882.7
2022-08-09T01:02:00.332Z,882.7
2022-08-09T01:03:00.380Z,882.7
2022-08-09T01:04:00.420Z,882.7
2022-08-09T01:05:00.308Z,882.7
2022-08-09T01:06:03.837Z,882.7
2022-08-09T01:07:00.303Z,882.7
2022-08-09T01:08:01.447Z,882.7
2022-08-09T01:09:00.306Z,882.7
2022-08-09T01:10:00.369Z,882.7
2022-08-09T01:11:00.290Z,882.8
2022-08-09T01:12:00.307Z,882.7
2022-08-09T01:13:00.411Z,882.7
2022-08-09T01:14:01.657Z,882.7
2022-08-09T01:15:01.020Z,882.7
2022-08-09T01:16:00.365Z,882.7
2022-08-09T01:17:00.380Z,882.7
2022-08-09T01:18:00.320Z,882.7
2022-08-09T01:19:02.475Z,882.8
2022-08-09T01:20:02.360Z,882.7
2022-08-09T01:21:00.309Z,882.7
2022-08-09T01:22:00.474Z,882.7
2022-08-09T01:23:00.313Z,882.7
2022-08-09T01:24:03.596Z,882.8
2022-08-09T01:25:00.707Z,882.8
2022-08-09T01:26:00.308Z,882.8
2022-08-09T01:27:00.301Z,882.7
2022-08-09T01:28:00.658Z,882.8
2022-08-09T01:29:00.297Z,882.8
2022-08-09T01:30:00.515Z,882.8
2022-08-09T01:31:00.297Z,882.8
2022-08-09T01:32:31.430Z,882.8
2022-08-09T01:33:00.413Z,882.8
2022-08-09T01:34:00.407Z,882.8
2022-08-09T01:35:00.327Z,882.8
2022-08-09T01:36:00.297Z,882.8
2022-08-09T01:37:00.299Z,882.8
2022-08-09T01:38:09.316Z,882.8
2022-08-09T01:39:00.291Z,882.8
2022-08-09T01:40:00.434Z,882.9
2022-08-09T01:41:05.380Z,882.9
2022-08-09T01:42:04.007Z,882.8
2022-08-09T01:43:00.314Z,882.9
2022-08-09T01:44:00.335Z,882.9
2022-08-09T01:45:00.301Z,882.9
2022-08-09T01:46:00.404Z,882.9
2022-08-09T01:47:00.296Z,882.9
2022-08-09T01:48:00.396Z,882.9
2022-08-09T01:49:09.421Z,882.9
2022-08-09T01:50:00.318Z,882.9
2022-08-09T01:51:00.309Z,882.9
2022-08-09T01:52:07.346Z,882.9
2022-08-09T01:53:00.328Z,882.9
2022-08-09T01:54:00.411Z,882.9
2022-08-09T01:55:00.314Z,882.9
2022-08-09T01:56:00.304Z,882.9
2022-08-09T01:57:00.303Z,882.9
2022-08-09T01:58:00.342Z,882.9
2022-08-09T01:59:00.300Z,882.9
2022-08-09T02:00:08.834Z,882.9
2022-08-09T02:01:00.342Z,882.9
2022-08-09T02:02:01.055Z,882.9
2022-08-09T02:03:00.412Z,883.0
2022-08-09T02:04:00.327Z,883.0
2022-08-09T02:05:04.536Z,883.0
2022-08-09T02:06:06.199Z,883.0
2022-08-09T02:07:01.984Z,883.0
2022-08-09T02:08:39.590Z,883.0
2022-08-09T02:09:00.425Z,883.0
2022-08-09T02:10:01.239Z,883.1
2022-08-09T02:11:00.310Z,883.1
2022-08-09T02:12:00.403Z,883.1
2022-08-09T02:13:00.325Z,883.1
2022-08-09T02:14:06.409Z,883.1
2022-08-09T02:15:00.331Z,883.1
2022-08-09T02:16:00.305Z,883.1
2022-08-09T02:17:59.329Z,883.1
2022-08-09T02:18:10.353Z,883.2
2022-08-09T02:19:00.300Z,883.1
2022-08-09T02:20:02.097Z,883.2
2022-08-09T02:21:00.422Z,883.2
2022-08-09T02:22:00.320Z,883.2
2022-08-09T02:23:00.313Z,883.1
2022-08-09T02:24:00.431Z,883.2
2022-08-09T02:25:00.385Z,883.2
2022-08-09T02:26:00.306Z,883.2
2022-08-09T02:27:00.299Z,883.2
2022-08-09T02:28:03.711Z,883.2
2022-08-09T02:29:00.397Z,883.2
2022-08-09T02:30:01.662Z,883.2
2022-08-09T02:31:00.467Z,883.2
2022-08-09T02:32:00.320Z,883.3
2022-08-09T02:33:00.336Z,883.3
2022-08-09T02:34:06.937Z,883.2
2022-08-09T02:35:00.329Z,883.3
2022-08-09T02:36:03.431Z,883.2
2022-08-09T02:37:00.287Z,883.3
2022-08-09T02:38:00.346Z,883.2
2022-08-09T02:39:00.407Z,883.3
2022-08-09T02:40:01.546Z,883.3
2022-08-09T02:41:00.350Z,883.3
2022-08-09T02:42:00.296Z,883.3
2022-08-09T02:43:00.346Z,883.3
2022-08-09T02:44:00.309Z,883.3
2022-08-09T02:45:00.385Z,883.3
2022-08-09T02:46:00.299Z,883.4
2022-08-09T02:47:00.310Z,883.4
2022-08-09T02:48:00.294Z,883.4
2022-08-09T02:49:00.307Z,883.4
2022-08-09T02:50:02.107Z,883.4
2022-08-09T02:51:01.671Z,883.4
2022-08-09T02:52:00.320Z,883.4
2022-08-09T02:53:00.316Z,883.4
2022-08-09T02:54:01.572Z,883.4
2022-08-09T02:55:00.325Z,883.4
2022-08-09T02:56:01.017Z,883.4
2022-08-09T02:57:00.390Z,883.4
2022-08-09T02:58:32.723Z,883.4
2022-08-09T02:59:00.284Z,883.4
2022-08-09T03:00:25.900Z,883.4
2022-08-09T03:01:04.493Z,883.4
2022-08-09T03:02:06.499Z,883.4
2022-08-09T03:03:00.799Z,883.5
2022-08-09T03:04:18.011Z,883.5
2022-08-09T03:05:00.432Z,883.4
2022-08-09T03:06:00.406Z,883.4
2022-08-09T03:07:13.975Z,883.4
2022-08-09T03:08:00.371Z,883.4
2022-08-09T03:09:00.383Z,883.4
2022-08-09T03:10:00.505Z,883.4
2022-08-09T03:11:00.456Z,883.4
2022-08-09T03:12:06.012Z,883.4
2022-08-09T03:13:00.347Z,883.5
2022-08-09T03:14:01.789Z,883.5
2022-08-09T03:15:00.282Z,883.4
2022-08-09T03:16:06.825Z,883.5
2022-08-09T03:17:01.911Z,883.5
2022-08-09T03:18:00.477Z,883.5
2022-08-09T03:19:01.826Z,883.5
2022-08-09T03:20:05.360Z,883.5
2022-08-09T03:21:00.313Z,883.4
2022-08-09T03:22:00.311Z,883.5
2022-08-09T03:23:15.030Z,883.5
2022-08-09T03:24:04.406Z,883.5
2022-08-09T03:25:06.455Z,883.5
2022-08-09T03:26:03.630Z,883.5
2022-08-09T03:27:00.301Z,883.5
2022-08-09T03:28:00.312Z,883.5
2022-08-09T03:29:00.325Z,883.5
2022-08-09T03:30:01.332Z,883.5
2022-08-09T03:31:00.474Z,883.5
2022-08-09T03:32:00.927Z,883.5
2022-08-09T03:33:00.314Z,883.5
2022-08-09T03:34:00.306Z,883.5
2022-08-09T03:35:00.365Z,883.5
2022-08-09T03:36:12.614Z,883.5
2022-08-09T03:37:10.569Z,883.5
2022-08-09T03:38:00.300Z,883.5
2022-08-09T03:39:00.310Z,883.5
2022-08-09T03:40:00.368Z,883.5
2022-08-09T03:41:00.337Z,883.6
2022-08-09T03:42:06.774Z,883.6
2022-08-09T03:43:00.349Z,883.6
2022-08-09T03:44:07.944Z,883.6
2022-08-09T03:45:00.433Z,883.6
2022-08-09T03:46:05.254Z,883.6
2022-08-09T03:47:00.404Z,883.6
2022-08-09T03:48:00.313Z,883.6
2022-08-09T03:49:04.025Z,883.6
2022-08-09T03:50:00.314Z,883.6
2022-08-09T03:51:00.343Z,883.6
2022-08-09T03:52:03.746Z,883.6
2022-08-09T03:53:00.418Z,883.6
2022-08-09T03:54:00.383Z,883.6
2022-08-09T03:55:00.297Z,883.6
2022-08-09T03:56:00.431Z,883.6
2022-08-09T03:57:00.292Z,883.6
2022-08-09T03:58:09.712Z,883.6
2022-08-09T03:59:00.375Z,883.6
2022-08-09T04:00:00.477Z,883.6
2022-08-09T04:01:00.315Z,883.6
2022-08-09T04:02:00.397Z,883.6
2022-08-09T04:03:00.323Z,883.7
2022-08-09T04:04:03.023Z,883.7
2022-08-09T04:05:00.773Z,883.7
2022-08-09T04:06:00.317Z,883.7
2022-08-09T04:07:00.323Z,883.7
2022-08-09T04:08:00.391Z,883.7
2022-08-09T04:09:00.315Z,883.7
2022-08-09T04:10:00.297Z,883.7
2022-08-09T04:11:01.647Z,883.7
2022-08-09T04:12:00.390Z,883.7
2022-08-09T04:13:01.149Z,883.7
2022-08-09T04:14:53.917Z,883.7
2022-08-09T04:15:11.347Z,883.7
2022-08-09T04:16:18.111Z,883.7
2022-08-09T04:17:00.312Z,883.8
2022-08-09T04:18:00.296Z,883.8
2022-08-09T04:19:00.410Z,883.8
2022-08-09T04:20:02.644Z,883.8
2022-08-09T04:21:00.301Z,883.7
2022-08-09T04:22:00.535Z,883.8
2022-08-09T04:23:00.303Z,883.8
2022-08-09T04:24:00.357Z,883.8
2022-08-09T04:25:01.449Z,883.8
2022-08-09T04:26:00.300Z,883.8
2022-08-09T04:27:00.378Z,883.8
2022-08-09T04:28:03.605Z,883.8
2022-08-09T04:29:02.450Z,883.8
2022-08-09T04:30:00.304Z,883.7
2022-08-09T04:31:00.314Z,883.8
2022-08-09T04:32:00.318Z,883.8
2022-08-09T04:33:01.260Z,883.8
2022-08-09T04:34:00.505Z,883.8
2022-08-09T04:35:01.372Z,883.8
2022-08-09T04:36:00.301Z,883.8
2022-08-09T04:37:00.309Z,883.8
2022-08-09T04:38:03.624Z,883.8
2022-08-09T04:39:00.301Z,883.8
2022-08-09T04:40:00.384Z,883.8
2022-08-09T04:41:00.313Z,883.8
2022-08-09T04:42:02.745Z,883.8
2022-08-09T04:43:00.332Z,883.8
2022-08-09T04:44:06.397Z,883.8
2022-08-09T04:45:00.324Z,883.9
2022-08-09T04:46:00.328Z,883.8
2022-08-09T04:47:04.375Z,883.8
2022-08-09T04:48:04.052Z,883.9
2022-08-09T04:49:00.382Z,883.9
2022-08-09T04:50:00.294Z,883.9
2022-08-09T04:51:00.310Z,883.9
2022-08-09T04:52:00.294Z,883.9
2022-08-09T04:53:00.321Z,883.9
2022-08-09T04:54:00.400Z,883.9
2022-08-09T04:55:00.309Z,883.9
2022-08-09T04:56:00.317Z,883.9
2022-08-09T04:57:00.315Z,883.9
2022-08-09T04:58:01.768Z,883.9
2022-08-09T04:59:03.712Z,883.9
2022-08-09T05:00:00.343Z,883.9
2022-08-09T05:01:00.337Z,883.9
2022-08-09T05:02:02.923Z,883.9
2022-08-09T05:03:00.466Z,883.9
2022-08-09T05:04:00.497Z,883.9
2022-08-09T05:05:09.588Z,883.9
2022-08-09T05:06:06.621Z,883.9
2022-08-09T05:07:00.296Z,883.9
2022-08-09T05:08:00.311Z,883.9
2022-08-09T05:09:01.285Z,883.9
2022-08-09T05:10:02.026Z,883.9
2022-08-09T05:11:01.129Z,883.9
2022-08-09T05:12:00.390Z,883.9
2022-08-09T05:13:00.295Z,883.9
2022-08-09T05:14:00.289Z,883.9
2022-08-09T05:15:00.316Z,883.9
2022-08-09T05:16:00.305Z,883.9
2022-08-09T05:17:00.343Z,884.0
2022-08-09T05:18:39.482Z,883.9
2022-08-09T05:19:02.750Z,883.9
2022-08-09T05:20:00.372Z,883.9
2022-08-09T05:21:00.315Z,883.9
2022-08-09T05:22:00.321Z,883.9
2022-08-09T05:23:54.577Z,883.9
2022-08-09T05:24:04.105Z,883.9
2022-08-09T05:25:00.981Z,883.9
2022-08-09T05:26:00.332Z,884.0
2022-08-09T05:27:00.295Z,883.9
2022-08-09T05:28:00.308Z,883.9
2022-08-09T05:29:00.312Z,884.0
2022-08-09T05:30:00.324Z,883.9
2022-08-09T05:31:00.384Z,884.0
2022-08-09T05:32:00.324Z,884.0
2022-08-09T05:33:00.322Z,884.0
2022-08-09T05:34:00.399Z,883.9
2022-08-09T05:35:00.497Z,883.9
2022-08-09T05:36:00.305Z,883.9
2022-08-09T05:37:01.745Z,883.9
2022-08-09T05:38:00.347Z,883.9
2022-08-09T05:39:00.357Z,883.9
2022-08-09T05:40:00.478Z,883.9
2022-08-09T05:41:00.318Z,883.9
2022-08-09T05:42:02.850Z,883.9
2022-08-09T05:43:00.382Z,883.9
2022-08-09T05:44:00.312Z,883.9
2022-08-09T05:45:00.384Z,883.9
2022-08-09T05:46:00.309Z,883.9
2022-08-09T05:47:00.316Z,883.9
2022-08-09T05:48:01.249Z,883.9
2022-08-09T05:49:00.407Z,883.9
2022-08-09T05:50:34.967Z,883.9
2022-08-09T05:51:16.785Z,883.9
2022-08-09T05:52:00.323Z,883.9
2022-08-09T05:53:00.314Z,883.9
2022-08-09T05:54:00.328Z,883.9
2022-08-09T05:55:03.161Z,883.9
2022-08-09T05:56:01.532Z,883.9
2022-08-09T05:57:00.338Z,883.9
2022-08-09T05:58:00.316Z,883.9
2022-08-09T05:59:00.308Z,883.9
2022-08-09T06:00:00.327Z,883.9
2022-08-09T06:01:00.417Z,884.0
2022-08-09T06:02:00.304Z,883.9
2022-08-09T06:03:00.480Z,883.9
2022-08-09T06:04:00.360Z,883.9
2022-08-09T06:05:00.308Z,884.0
2022-08-09T06:06:05.871Z,884.0
2022-08-09T06:07:00.299Z,883.9
2022-08-09T06:08:05.498Z,884.0
2022-08-09T06:09:00.390Z,884.0
2022-08-09T06:10:02.758Z,883.9
2022-08-09T06:11:00.331Z,883.9
2022-08-09T06:12:00.452Z,883.9
2022-08-09T06:13:11.665Z,883.9
2022-08-09T06:14:00.310Z,883.9
2022-08-09T06:15:01.812Z,883.9
2022-08-09T06:16:00.323Z,883.9
2022-08-09T06:17:00.336Z,883.9
2022-08-09T06:18:00.435Z,883.9
2022-08-09T06:19:00.307Z,883.9
2022-08-09T06:20:00.317Z,883.9
2022-08-09T06:21:00.486Z,883.9
2022-08-09T06:22:00.343Z,883.9
2022-08-09T06:23:00.335Z,883.9
2022-08-09T06:24:02.546Z,883.8
2022-08-09T06:25:00.298Z,883.8
2022-08-09T06:26:00.317Z,883.9
2022-08-09T06:27:00.618Z,883.9
2022-08-09T06:28:00.310Z,883.9
2022-08-09T06:29:05.245Z,883.9
2022-08-09T06:30:08.918Z,883.9
2022-08-09T06:31:00.353Z,883.9
2022-08-09T06:32:08.940Z,883.9
2022-08-09T06:33:30.077Z,883.9
2022-08-09T06:34:00.320Z,883.9
2022-08-09T06:35:00.328Z,883.9
2022-08-09T06:36:00.332Z,883.9
2022-08-09T06:37:00.426Z,883.9
2022-08-09T06:38:05.781Z,883.9
2022-08-09T06:39:02.401Z,883.9
2022-08-09T06:40:02.590Z,883.9
2022-08-09T06:41:00.305Z,883.9
2022-08-09T06:42:09.396Z,883.9
2022-08-09T06:43:00.382Z,883.8
2022-08-09T06:44:00.315Z,883.9
2022-08-09T06:45:00.507Z,883.9
2022-08-09T06:46:06.707Z,883.8
2022-08-09T06:47:00.296Z,883.8
2022-08-09T06:48:00.597Z,883.8
2022-08-09T06:49:00.642Z,883.8
2022-08-09T06:50:14.575Z,883.8
2022-08-09T06:51:00.328Z,883.8
2022-08-09T06:52:00.332Z,883.8
2022-08-09T06:53:00.342Z,883.8
2022-08-09T06:54:00.983Z,883.8
2022-08-09T06:55:00.402Z,883.8
2022-08-09T06:56:00.378Z,883.8
2022-08-09T06:57:00.361Z,883.8
2022-08-09T06:58:02.622Z,883.8
2022-08-09T07:00:52.912Z,883.8
2022-08-09T07:00:55.692Z,883.8
2022-08-09T07:01:00.529Z,883.8
2022-08-09T07:02:04.481Z,883.8
2022-08-09T07:03:00.305Z,883.8
2022-08-09T07:04:03.748Z,883.8
2022-08-09T07:05:00.433Z,883.8
2022-08-09T07:06:03.851Z,883.8
2022-08-09T07:07:01.026Z,883.8
2022-08-09T07:08:01.791Z,883.8
2022-08-09T07:09:00.310Z,883.8
2022-08-09T07:10:17.926Z,883.7
2022-08-09T07:11:00.363Z,883.7
2022-08-09T07:12:00.302Z,883.8
2022-08-09T07:13:00.410Z,883.7
2022-08-09T07:14:05.530Z,883.7
2022-08-09T07:15:00.376Z,883.8
2022-08-09T07:16:41.708Z,883.7
2022-08-09T07:17:00.309Z,883.7
2022-08-09T07:18:02.305Z,883.7
2022-08-09T07:19:00.329Z,883.7
2022-08-09T07:20:00.451Z,883.8
2022-08-09T07:21:00.430Z,883.7
2022-08-09T07:22:00.302Z,883.7
2022-08-09T07:23:00.307Z,883.8
2022-08-09T07:24:00.333Z,883.7
2022-08-09T07:25:00.326Z,883.7
2022-08-09T07:26:02.673Z,883.8
2022-08-09T07:27:00.647Z,883.7
2022-08-09T07:28:00.309Z,883.7
2022-08-09T07:29:01.260Z,883.7
2022-08-09T07:30:00.380Z,883.7
2022-08-09T07:31:00.418Z,883.7
2022-08-09T07:32:00.383Z,883.6
2022-08-09T07:33:00.301Z,883.6
2022-08-09T07:34:00.304Z,883.7
2022-08-09T07:35:00.307Z,883.6
2022-08-09T07:36:00.401Z,883.7
2022-08-09T07:37:02.646Z,883.7
2022-08-09T07:38:00.495Z,883.7
2022-08-09T07:39:00.995Z,883.6
2022-08-09T07:40:00.448Z,883.7
2022-08-09T07:41:11.444Z,883.7
2022-08-09T07:42:00.412Z,883.7
2022-08-09T07:43:00.332Z,883.7
2022-08-09T07:44:00.324Z,883.6
2022-08-09T07:45:06.295Z,883.6
2022-08-09T07:46:03.016Z,883.6
2022-08-09T07:47:00.322Z,883.6
2022-08-09T07:48:04.107Z,883.6
2022-08-09T07:49:00.494Z,883.6
2022-08-09T07:50:07.811Z,883.6
2022-08-09T07:51:10.215Z,883.6
2022-08-09T07:52:04.614Z,883.6
2022-08-09T07:53:02.950Z,883.5
2022-08-09T07:54:07.037Z,883.5
2022-08-09T07:55:00.326Z,883.6
2022-08-09T07:56:02.751Z,883.5
2022-08-09T07:57:00.295Z,883.5
2022-08-09T07:58:00.443Z,883.5
2022-08-09T07:59:00.372Z,883.5
2022-08-09T08:00:03.441Z,883.5
2022-08-09T08:01:06.767Z,883.4
2022-08-09T08:02:00.410Z,883.5
2022-08-09T08:03:00.352Z,883.4
2022-08-09T08:04:00.509Z,883.4
2022-08-09T08:05:00.390Z,883.4
2022-08-09T08:06:00.335Z,883.4
2022-08-09T08:07:15.172Z,883.4
2022-08-09T08:09:01.275Z,883.3
2022-08-09T08:09:04.408Z,883.4
2022-08-09T08:10:08.100Z,883.3
2022-08-09T08:12:07.724Z,883.3
2022-08-09T08:12:09.896Z,883.3
2022-08-09T08:13:00.328Z,883.2
2022-08-09T08:14:00.313Z,883.2
2022-08-09T08:15:00.381Z,883.3
2022-08-09T08:16:00.316Z,883.3
2022-08-09T08:17:07.831Z,883.2
2022-08-09T08:18:00.319Z,883.2
2022-08-09T08:19:02.836Z,883.2
2022-08-09T08:20:00.332Z,883.1
2022-08-09T08:21:00.404Z,883.2
2022-08-09T08:22:00.385Z,883.2
2022-08-09T08:23:03.428Z,883.2
2022-08-09T08:24:01.042Z,883.2
2022-08-09T08:25:00.313Z,883.1
2022-08-09T08:26:08.236Z,883.1
2022-08-09T08:27:00.413Z,883.1
2022-08-09T08:28:00.301Z,883.0
2022-08-09T08:29:00.298Z,883.1
2022-08-09T08:30:04.328Z,883.1
2022-08-09T08:31:04.907Z,883.0
2022-08-09T08:32:03.966Z,883.0
2022-08-09T08:33:00.514Z,883.0
2022-08-09T08:34:00.312Z,883.0
2022-08-09T08:35:00.299Z,883.1
2022-08-09T08:36:03.569Z,883.0
2022-08-09T08:37:01.401Z,883.0
2022-08-09T08:38:04.705Z,883.0
2022-08-09T08:39:00.539Z,883.0
2022-08-09T08:40:00.456Z,883.0
2022-08-09T08:41:01.757Z,883.0
2022-08-09T08:42:00.318Z,883.0
2022-08-09T08:43:00.323Z,883.0
2022-08-09T08:44:02.655Z,883.0
2022-08-09T08:45:00.311Z,883.0
2022-08-09T08:46:32.565Z,883.0
2022-08-09T08:47:04.446Z,883.0
2022-08-09T08:48:00.335Z,883.0
2022-08-09T08:49:00.301Z,882.9
2022-08-09T08:50:02.731Z,882.9
2022-08-09T08:51:00.326Z,882.9
2022-08-09T08:52:04.020Z,882.9
2022-08-09T08:53:00.878Z,882.9
2022-08-09T08:54:03.455Z,882.8
2022-08-09T08:55:01.245Z,882.8
2022-08-09T08:56:00.514Z,882.8
2022-08-09T08:57:00.360Z,882.8
2022-08-09T08:58:00.401Z,882.8
2022-08-09T08:59:00.445Z,882.8
2022-08-09T09:00:00.378Z,882.8
2022-08-09T09:01:00.626Z,882.8
2022-08-09T09:02:00.331Z,882.8
2022-08-09T09:03:08.347Z,882.7
2022-08-09T09:04:00.369Z,882.7
2022-08-09T09:05:02.969Z,882.7
2022-08-09T09:06:04.571Z,882.7
2022-08-09T09:07:00.653Z,882.7
2022-08-09T09:08:00.294Z,882.7
2022-08-09T09:09:00.322Z,882.7
2022-08-09T09:10:04.771Z,882.7
2022-08-09T09:11:00.406Z,882.7
2022-08-09T09:12:00.328Z,882.7
2022-08-09T09:13:00.427Z,882.7
2022-08-09T09:14:00.313Z,882.7
2022-08-09T09:15:00.313Z,882.8
2022-08-09T09:16:00.286Z,882.7
2022-08-09T09:17:00.404Z,882.7
2022-08-09T09:18:00.324Z,882.7
2022-08-09T09:19:21.609Z,882.7
2022-08-09T09:20:01.107Z,882.7
2022-08-09T09:21:00.335Z,882.7
2022-08-09T09:22:00.713Z,882.7
2022-08-09T09:23:01.895Z,882.6
2022-08-09T09:24:04.703Z,882.6
2022-08-09T09:26:01.158Z,882.6
2022-08-09T09:26:12.018Z,882.6
2022-08-09T09:27:00.329Z,882.6
2022-08-09T09:28:04.300Z,882.5
2022-08-09T09:29:03.472Z,882.5
2022-08-09T09:30:11.436Z,882.5
2022-08-09T09:31:00.548Z,882.5
2022-08-09T09:32:15.143Z,882.5
2022-08-09T09:33:00.394Z,882.5
2022-08-09T09:34:00.297Z,882.5
2022-08-09T09:35:00.411Z,882.5
2022-08-09T09:36:01.820Z,882.5
2022-08-09T09:37:00.339Z,882.5
2022-08-09T09:38:00.487Z,882.4
2022-08-09T09:39:00.432Z,882.4
2022-08-09T09:40:00.729Z,882.4
2022-08-09T09:41:00.524Z,882.4
2022-08-09T09:42:00.474Z,882.4
2022-08-09T09:43:00.410Z,882.4
2022-08-09T09:44:11.576Z,882.4
2022-08-09T09:45:00.491Z,882.3
2022-08-09T09:47:00.459Z,882.3
2022-08-09T09:48:00.361Z,882.3
2022-08-09T09:49:00.296Z,882.3
2022-08-09T09:50:14.110Z,882.2
2022-08-09T09:51:00.282Z,882.2
2022-08-09T09:52:00.423Z,882.2
2022-08-09T09:53:00.588Z,882.2
2022-08-09T09:54:01.663Z,882.2
2022-08-09T09:55:00.300Z,882.2
2022-08-09T09:56:04.166Z,882.2
2022-08-09T09:58:02.411Z,882.2
2022-08-09T09:58:15.619Z,882.2
2022-08-09T09:59:00.317Z,882.2
2022-08-09T10:00:00.273Z,882.2
2022-08-09T10:01:00.327Z,882.2
2022-08-09T10:02:00.366Z,882.2
2022-08-09T10:03:00.423Z,882.2
2022-08-09T10:04:03.258Z,882.2
2022-08-09T10:05:00.314Z,882.1
2022-08-09T10:06:01.387Z,882.2
2022-08-09T10:07:03.670Z,882.2
2022-08-09T10:08:11.119Z,882.1
2022-08-09T10:09:00.396Z,882.1
2022-08-09T10:10:03.230Z,882.1
2022-08-09T10:11:06.909Z,882.1
2022-08-09T10:12:14.376Z,882.1
2022-08-09T10:13:00.337Z,882.1
2022-08-09T10:14:00.392Z,882.1
2022-08-09T10:15:00.305Z,882.0
2022-08-09T10:16:54.485Z,882.1
2022-08-09T10:17:11.265Z,882.1
2022-08-09T10:18:00.288Z,882.1
2022-08-09T10:19:00.311Z,882.0
2022-08-09T10:20:00.677Z,882.0
2022-08-09T10:21:00.338Z,882.0
2022-08-09T10:22:00.424Z,882.0
2022-08-09T10:23:00.835Z,881.9
2022-08-09T10:24:00.318Z,882.0
2022-08-09T10:25:11.031Z,882.0
2022-08-09T10:26:04.865Z,882.0
2022-08-09T10:27:00.308Z,882.0
2022-08-09T10:28:00.355Z,881.9
2022-08-09T10:29:32.781Z,881.9
2022-08-09T10:30:49.490Z,881.9
2022-08-09T10:32:28.594Z,881.9
2022-08-09T10:33:00.305Z,881.9
2022-08-09T10:34:11.399Z,881.9
2022-08-09T10:35:00.307Z,881.9
2022-08-09T10:36:01.153Z,881.9
2022-08-09T10:37:00.423Z,881.9
2022-08-09T10:38:00.364Z,881.9
2022-08-09T10:39:00.594Z,881.9
2022-08-09T10:40:00.376Z,881.9
2022-08-09T10:41:00.430Z,881.9
2022-08-09T10:42:00.300Z,881.8
2022-08-09T10:43:00.516Z,881.8
2022-08-09T10:44:01.916Z,881.8
2022-08-09T10:45:00.310Z,881.8
2022-08-09T10:46:00.400Z,881.8
2022-08-09T10:47:01.065Z,881.8
2022-08-09T10:48:16.812Z,881.8
2022-08-09T10:49:00.296Z,881.7
2022-08-09T10:50:00.376Z,881.8
2022-08-09T10:51:00.325Z,881.8
2022-08-09T10:52:00.311Z,881.7
2022-08-09T10:53:00.351Z,881.7
2022-08-09T10:54:04.639Z,881.7
2022-08-09T10:55:00.397Z,881.7
2022-08-09T10:56:00.497Z,881.7
2022-08-09T10:57:00.459Z,881.7
2022-08-09T10:58:00.694Z,881.7
2022-08-09T10:59:00.309Z,881.6
2022-08-09T11:00:01.842Z,881.6
2022-08-09T11:03:05.636Z,881.6
2022-08-09T11:03:14.130Z,881.6
2022-08-09T11:03:15.302Z,881.6
2022-08-09T11:04:04.125Z,881.6
2022-08-09T11:05:00.370Z,881.6
2022-08-09T11:06:01.016Z,881.6
2022-08-09T11:07:01.177Z,881.6
2022-08-09T11:08:00.310Z,881.6
2022-08-09T11:09:08.643Z,881.6
2022-08-09T11:10:00.294Z,881.5
2022-08-09T11:11:08.460Z,881.6
2022-08-09T11:12:00.373Z,881.5
2022-08-09T11:13:00.461Z,881.5
2022-08-09T11:14:00.336Z,881.5
2022-08-09T11:15:00.311Z,881.5
2022-08-09T11:16:04.816Z,881.5
2022-08-09T11:17:00.349Z,881.4
2022-08-09T11:18:03.911Z,881.4
2022-08-09T11:19:00.428Z,881.4
2022-08-09T11:20:11.572Z,881.4
2022-08-09T11:21:00.377Z,881.4
2022-08-09T11:22:16.558Z,881.4
2022-08-09T11:23:00.365Z,881.3
2022-08-09T11:24:00.311Z,881.3
2022-08-09T11:25:00.464Z,881.3
2022-08-09T11:26:00.495Z,881.3
2022-08-09T11:27:00.460Z,881.3
2022-08-09T11:28:07.954Z,881.3
2022-08-09T11:29:00.340Z,881.3
2022-08-09T11:30:04.169Z,881.3
2022-08-09T11:31:00.302Z,881.3
2022-08-09T11:32:00.414Z,881.3
2022-08-09T11:33:00.278Z,881.3
2022-08-09T11:34:00.301Z,881.3
2022-08-09T11:35:00.326Z,881.2
2022-08-09T11:36:00.418Z,881.3
2022-08-09T11:37:00.297Z,881.3
2022-08-09T11:38:00.367Z,881.2
2022-08-09T11:39:00.287Z,881.2
2022-08-09T11:40:00.425Z,881.2
2022-08-09T11:41:00.320Z,881.2
2022-08-09T11:42:00.398Z,881.2
2022-08-09T11:43:00.297Z,881.2
2022-08-09T11:44:00.303Z,881.2
2022-08-09T11:45:00.324Z,881.2
2022-08-09T11:46:00.312Z,881.2
2022-08-09T11:47:00.298Z,881.2
2022-08-09T11:48:08.185Z,881.2
2022-08-09T11:49:00.353Z,881.1
2022-08-09T11:50:55.202Z,881.1
2022-08-09T11:52:48.660Z,881.2
2022-08-09T11:53:03.269Z,881.2
2022-08-09T11:53:59.604Z,881.1
2022-08-09T11:54:04.280Z,881.1
2022-08-09T11:55:00.386Z,881.1
2022-08-09T11:56:02.627Z,881.1
2022-08-09T11:57:00.304Z,881.1
2022-08-09T11:58:02.313Z,881.1
2022-08-09T11:59:00.400Z,881.1
2022-08-09T12:00:00.298Z,881.1
2022-08-09T12:01:00.309Z,881.1
2022-08-09T12:02:17.807Z,881.1
2022-08-09T12:03:00.344Z,881.1
2022-08-09T12:04:00.471Z,881.1
2022-08-09T12:05:00.441Z,881.1
2022-08-09T12:06:00.328Z,881.1
2022-08-09T12:07:00.323Z,881.1
2022-08-09T12:08:00.297Z,881.1
2022-08-09T12:09:00.375Z,881.0
2022-08-09T12:10:00.408Z,881.1
2022-08-09T12:11:00.579Z,881.1
2022-08-09T12:12:03.175Z,881.1
2022-08-09T12:13:00.413Z,881.1
2022-08-09T12:14:09.658Z,881.1
2022-08-09T12:15:07.675Z,881.1
2022-08-09T12:16:00.426Z,881.1
2022-08-09T12:17:00.309Z,881.0
2022-08-09T12:18:00.285Z,881.0
2022-08-09T12:19:00.329Z,881.0
2022-08-09T12:20:00.335Z,881.0
2022-08-09T12:21:02.713Z,881.0
2022-08-09T12:22:00.399Z,881.0
2022-08-09T12:23:00.370Z,881.0
2022-08-09T12:24:09.046Z,881.0
2022-08-09T12:25:00.419Z,881.0
2022-08-09T12:26:00.428Z,881.0
2022-08-09T12:28:58.427Z,881.0
2022-08-09T12:29:11.996Z,880.9
2022-08-09T12:29:29.981Z,880.9
2022-08-09T12:30:35.500Z,881.0
2022-08-09T12:31:00.311Z,881.0
2022-08-09T12:32:02.906Z,881.0
2022-08-09T12:33:00.314Z,881.0
2022-08-09T12:34:01.418Z,880.9
2022-08-09T12:35:03.162Z,880.9
2022-08-09T12:36:00.398Z,880.9
2022-08-09T12:37:09.830Z,880.9
2022-08-09T12:38:00.408Z,880.9
2022-08-09T12:39:00.304Z,880.9
2022-08-09T12:40:00.312Z,880.9
2022-08-09T12:41:00.414Z,880.9
2022-08-09T12:42:00.312Z,880.9
2022-08-09T12:43:00.316Z,880.9
2022-08-09T12:44:06.802Z,880.9
2022-08-09T12:45:00.422Z,880.9
2022-08-09T12:46:00.795Z,880.9
2022-08-09T12:47:00.319Z,880.9
2022-08-09T12:48:00.291Z,880.9
2022-08-09T12:49:00.307Z,880.9
2022-08-09T12:50:00.376Z,880.9
2022-08-09T12:51:03.690Z,880.8
2022-08-09T12:52:03.035Z,880.9
2022-08-09T12:53:08.812Z,880.9
2022-08-09T12:54:00.624Z,880.9